sensor_id;sensor_type;location;lat;lon;timestamp;pressure;altitude;pressure_sealevel;temperature;humidity
62333;BME280;48624;49.812;8.562;2023-04-21T00:00:57;100315.34;;;7.17;100.00
62333;BME280;48624;49.812;8.562;2023-04-21T00:03:26;100309.47;;;7.12;100.00
62333;BME280;48624;49.812;8.562;2023-04-21T00:05:54;100306.09;;;7.10;100.00
62333;BME280;48624;49.812;8.562;2023-04-21T00:08:20;100304.81;;;7.01;100.00
62333;BME280;48624;49.812;8.562;2023-04-21T00:10:46;100312.88;;;6.98;100.00
62333;BME280;48624;49.812;8.562;2023-04-21T00:13:11;100304.72;;;6.87;100.00
62333;BME280;48624;49.812;8.562;2023-04-21T00:15:36;100301.03;;;6.73;100.00
62333;BME280;48624;49.812;8.562;2023-04-21T00:18:02;100296.81;;;6.71;100.00
62333;BME280;48624;49.812;8.562;2023-04-21T00:20:28;100299.84;;;6.63;100.00
62333;BME280;48624;49.812;8.562;2023-04-21T00:22:54;100295.31;;;6.49;100.00
62333;BME280;48624;49.812;8.562;2023-04-21T00:25:21;100296.16;;;6.33;100.00
62333;BME280;48624;49.812;8.562;2023-04-21T00:27:47;100282.50;;;6.43;100.00
62333;BME280;48624;49.812;8.562;2023-04-21T00:30:13;100299.97;;;6.28;100.00
62333;BME280;48624;49.812;8.562;2023-04-21T00:32:38;100296.22;;;6.32;100.00
62333;BME280;48624;49.812;8.562;2023-04-21T00:35:04;100288.53;;;6.45;100.00
62333;BME280;48624;49.812;8.562;2023-04-21T00:37:30;100295.56;;;6.10;100.00
62333;BME280;48624;49.812;8.562;2023-04-21T00:39:56;100287.75;;;6.09;100.00
62333;BME280;48624;49.812;8.562;2023-04-21T00:42:21;100298.56;;;6.20;100.00
62333;BME280;48624;49.812;8.562;2023-04-21T00:44:46;100295.09;;;6.02;100.00
62333;BME280;48624;49.812;8.562;2023-04-21T00:47:12;100283.03;;;5.98;100.00
62333;BME280;48624;49.812;8.562;2023-04-21T00:49:37;100298.19;;;5.93;100.00
62333;BME280;48624;49.812;8.562;2023-04-21T00:52:04;100291.66;;;6.00;100.00
62333;BME280;48624;49.812;8.562;2023-04-21T00:54:29;100285.72;;;5.96;100.00
62333;BME280;48624;49.812;8.562;2023-04-21T00:56:55;100288.50;;;5.93;100.00
62333;BME280;48624;49.812;8.562;2023-04-21T00:59:23;100275.84;;;5.84;100.00
62333;BME280;48624;49.812;8.562;2023-04-21T01:01:49;100275.59;;;5.89;100.00
62333;BME280;48624;49.812;8.562;2023-04-21T01:04:14;100281.41;;;5.78;100.00
62333;BME280;48624;49.812;8.562;2023-04-21T01:06:40;100286.19;;;5.87;100.00
62333;BME280;48624;49.812;8.562;2023-04-21T01:09:06;100280.03;;;5.88;100.00
62333;BME280;48624;49.812;8.562;2023-04-21T01:11:31;100276.31;;;5.75;100.00
62333;BME280;48624;49.812;8.562;2023-04-21T01:13:57;100278.47;;;5.66;100.00
62333;BME280;48624;49.812;8.562;2023-04-21T01:16:23;100273.66;;;5.92;100.00
62333;BME280;48624;49.812;8.562;2023-04-21T01:18:49;100272.38;;;5.66;100.00
62333;BME280;48624;49.812;8.562;2023-04-21T01:21:15;100276.69;;;5.67;100.00
62333;BME280;48624;49.812;8.562;2023-04-21T01:23:41;100280.97;;;5.69;100.00
62333;BME280;48624;49.812;8.562;2023-04-21T01:26:07;100278.22;;;5.71;100.00
62333;BME280;48624;49.812;8.562;2023-04-21T01:28:33;100276.59;;;5.68;100.00
62333;BME280;48624;49.812;8.562;2023-04-21T01:30:58;100287.34;;;5.64;100.00
62333;BME280;48624;49.812;8.562;2023-04-21T01:33:24;100280.97;;;5.69;100.00
62333;BME280;48624;49.812;8.562;2023-04-21T01:35:49;100270.81;;;5.79;100.00
62333;BME280;48624;49.812;8.562;2023-04-21T01:38:15;100281.31;;;5.79;100.00
62333;BME280;48624;49.812;8.562;2023-04-21T01:40:46;100286.41;;;5.82;100.00
62333;BME280;48624;49.812;8.562;2023-04-21T01:43:12;100269.88;;;5.27;100.00
62333;BME280;48624;49.812;8.562;2023-04-21T01:45:38;100270.63;;;5.30;100.00
62333;BME280;48624;49.812;8.562;2023-04-21T01:48:04;100275.63;;;4.97;100.00
62333;BME280;48624;49.812;8.562;2023-04-21T01:50:29;100267.94;;;5.31;100.00
62333;BME280;48624;49.812;8.562;2023-04-21T01:52:54;100272.22;;;5.14;100.00
62333;BME280;48624;49.812;8.562;2023-04-21T01:55:20;100280.66;;;5.21;100.00
62333;BME280;48624;49.812;8.562;2023-04-21T01:57:45;100275.41;;;5.21;100.00
62333;BME280;48624;49.812;8.562;2023-04-21T02:00:11;100267.47;;;5.23;100.00
62333;BME280;48624;49.812;8.562;2023-04-21T02:02:36;100265.53;;;5.26;100.00
62333;BME280;48624;49.812;8.562;2023-04-21T02:05:01;100275.44;;;5.39;100.00
62333;BME280;48624;49.812;8.562;2023-04-21T02:07:27;100264.59;;;5.45;100.00
62333;BME280;48624;49.812;8.562;2023-04-21T02:09:52;100270.28;;;5.55;100.00
62333;BME280;48624;49.812;8.562;2023-04-21T02:12:17;100273.66;;;5.57;100.00
62333;BME280;48624;49.812;8.562;2023-04-21T02:14:43;100265.19;;;5.52;100.00
62333;BME280;48624;49.812;8.562;2023-04-21T02:17:08;100265.25;;;5.50;100.00
62333;BME280;48624;49.812;8.562;2023-04-21T02:19:33;100277.94;;;5.60;100.00
62333;BME280;48624;49.812;8.562;2023-04-21T02:21:59;100275.53;;;5.73;100.00
62333;BME280;48624;49.812;8.562;2023-04-21T02:24:24;100279.41;;;5.65;100.00
62333;BME280;48624;49.812;8.562;2023-04-21T02:26:49;100283.97;;;5.79;100.00
62333;BME280;48624;49.812;8.562;2023-04-21T02:29:15;100280.09;;;5.69;100.00
62333;BME280;48624;49.812;8.562;2023-04-21T02:31:40;100272.28;;;5.67;100.00
62333;BME280;48624;49.812;8.562;2023-04-21T02:34:06;100272.19;;;5.51;100.00
62333;BME280;48624;49.812;8.562;2023-04-21T02:36:31;100285.19;;;5.37;100.00
62333;BME280;48624;49.812;8.562;2023-04-21T02:38:57;100282.56;;;5.37;100.00
62333;BME280;48624;49.812;8.562;2023-04-21T02:41:22;100277.06;;;5.41;100.00
62333;BME280;48624;49.812;8.562;2023-04-21T02:43:49;100288.31;;;5.26;100.00
62333;BME280;48624;49.812;8.562;2023-04-21T02:46:14;100286.78;;;5.39;100.00
62333;BME280;48624;49.812;8.562;2023-04-21T02:48:39;100292.44;;;5.49;100.00
62333;BME280;48624;49.812;8.562;2023-04-21T02:51:13;100286.66;;;5.43;100.00
62333;BME280;48624;49.812;8.562;2023-04-21T02:53:40;100289.50;;;5.38;100.00
62333;BME280;48624;49.812;8.562;2023-04-21T02:56:06;100276.88;;;5.27;100.00
62333;BME280;48624;49.812;8.562;2023-04-21T02:58:35;100285.97;;;5.20;100.00
62333;BME280;48624;49.812;8.562;2023-04-21T03:01:02;100288.16;;;5.29;100.00
62333;BME280;48624;49.812;8.562;2023-04-21T03:03:28;100295.88;;;5.14;100.00
62333;BME280;48624;49.812;8.562;2023-04-21T03:06:01;100303.09;;;5.09;100.00
62333;BME280;48624;49.812;8.562;2023-04-21T03:08:27;100301.50;;;5.24;100.00
62333;BME280;48624;49.812;8.562;2023-04-21T03:10:53;100302.69;;;5.36;100.00
62333;BME280;48624;49.812;8.562;2023-04-21T03:13:18;100304.25;;;5.04;100.00
62333;BME280;48624;49.812;8.562;2023-04-21T03:15:43;100298.78;;;5.08;100.00
62333;BME280;48624;49.812;8.562;2023-04-21T03:18:09;100301.13;;;4.95;100.00
62333;BME280;48624;49.812;8.562;2023-04-21T03:20:36;100300.28;;;4.95;100.00
62333;BME280;48624;49.812;8.562;2023-04-21T03:23:02;100295.03;;;4.95;100.00
62333;BME280;48624;49.812;8.562;2023-04-21T03:25:27;100295.59;;;4.82;100.00
62333;BME280;48624;49.812;8.562;2023-04-21T03:27:53;100286.03;;;4.81;100.00
62333;BME280;48624;49.812;8.562;2023-04-21T03:30:19;100283.53;;;4.78;100.00
62333;BME280;48624;49.812;8.562;2023-04-21T03:32:45;100285.25;;;4.79;100.00
62333;BME280;48624;49.812;8.562;2023-04-21T03:35:10;100287.00;;;4.79;100.00
62333;BME280;48624;49.812;8.562;2023-04-21T03:37:36;100287.59;;;4.85;100.00
62333;BME280;48624;49.812;8.562;2023-04-21T03:40:01;100288.03;;;4.76;100.00
62333;BME280;48624;49.812;8.562;2023-04-21T03:42:26;100285.47;;;4.75;100.00
62333;BME280;48624;49.812;8.562;2023-04-21T03:44:53;100289.44;;;4.64;100.00
62333;BME280;48624;49.812;8.562;2023-04-21T03:47:19;100295.03;;;4.76;100.00
62333;BME280;48624;49.812;8.562;2023-04-21T03:49:44;100284.53;;;4.76;100.00
62333;BME280;48624;49.812;8.562;2023-04-21T03:52:09;100283.41;;;4.81;100.00
62333;BME280;48624;49.812;8.562;2023-04-21T03:54:36;100286.22;;;4.77;100.00
62333;BME280;48624;49.812;8.562;2023-04-21T03:57:01;100289.00;;;4.74;100.00
62333;BME280;48624;49.812;8.562;2023-04-21T03:59:26;100292.56;;;4.72;100.00
62333;BME280;48624;49.812;8.562;2023-04-21T04:01:51;100297.88;;;4.71;100.00
62333;BME280;48624;49.812;8.562;2023-04-21T04:04:17;100284.91;;;4.68;100.00
62333;BME280;48624;49.812;8.562;2023-04-21T04:06:42;100280.41;;;4.70;100.00
62333;BME280;48624;49.812;8.562;2023-04-21T04:09:07;100284.91;;;4.68;100.00
62333;BME280;48624;49.812;8.562;2023-04-21T04:11:33;100272.97;;;4.61;100.00
62333;BME280;48624;49.812;8.562;2023-04-21T04:13:58;100277.59;;;4.55;100.00
62333;BME280;48624;49.812;8.562;2023-04-21T04:16:24;100274.09;;;4.55;100.00
62333;BME280;48624;49.812;8.562;2023-04-21T04:18:49;100270.50;;;4.57;100.00
62333;BME280;48624;49.812;8.562;2023-04-21T04:21:15;100287.19;;;4.36;100.00
62333;BME280;48624;49.812;8.562;2023-04-21T04:23:40;100286.66;;;4.48;100.00
62333;BME280;48624;49.812;8.562;2023-04-21T04:26:06;100287.06;;;4.39;100.00
62333;BME280;48624;49.812;8.562;2023-04-21T04:28:32;100281.88;;;4.37;100.00
62333;BME280;48624;49.812;8.562;2023-04-21T04:30:57;100280.31;;;4.33;100.00
62333;BME280;48624;49.812;8.562;2023-04-21T04:33:24;100287.22;;;4.15;100.00
62333;BME280;48624;49.812;8.562;2023-04-21T04:35:50;100290.84;;;4.52;100.00
62333;BME280;48624;49.812;8.562;2023-04-21T04:38:16;100290.91;;;4.11;100.00
62333;BME280;48624;49.812;8.562;2023-04-21T04:40:42;100286.19;;;4.19;100.00
62333;BME280;48624;49.812;8.562;2023-04-21T04:43:07;100285.38;;;4.38;100.00
62333;BME280;48624;49.812;8.562;2023-04-21T04:45:34;100286.63;;;4.29;100.00
62333;BME280;48624;49.812;8.562;2023-04-21T04:48:00;100284.66;;;4.53;100.00
62333;BME280;48624;49.812;8.562;2023-04-21T04:50:25;100287.91;;;4.39;100.00
62333;BME280;48624;49.812;8.562;2023-04-21T04:52:51;100278.44;;;4.37;100.00
62333;BME280;48624;49.812;8.562;2023-04-21T04:55:17;100281.84;;;4.77;100.00
62333;BME280;48624;49.812;8.562;2023-04-21T04:57:43;100282.69;;;4.78;100.00
62333;BME280;48624;49.812;8.562;2023-04-21T05:00:08;100283.41;;;4.62;100.00
62333;BME280;48624;49.812;8.562;2023-04-21T05:02:36;100287.00;;;4.79;100.00
62333;BME280;48624;49.812;8.562;2023-04-21T05:05:01;100286.25;;;4.57;100.00
62333;BME280;48624;49.812;8.562;2023-04-21T05:07:28;100282.97;;;4.52;100.00
62333;BME280;48624;49.812;8.562;2023-04-21T05:09:53;100286.44;;;4.53;100.00
62333;BME280;48624;49.812;8.562;2023-04-21T05:12:18;100285.38;;;4.57;100.00
62333;BME280;48624;49.812;8.562;2023-04-21T05:14:44;100286.03;;;4.62;100.00
62333;BME280;48624;49.812;8.562;2023-04-21T05:17:09;100279.41;;;4.53;100.00
62333;BME280;48624;49.812;8.562;2023-04-21T05:19:35;100275.66;;;4.40;100.00
62333;BME280;48624;49.812;8.562;2023-04-21T05:22:01;100277.94;;;4.67;100.00
62333;BME280;48624;49.812;8.562;2023-04-21T05:24:27;100280.84;;;4.61;100.00
62333;BME280;48624;49.812;8.562;2023-04-21T05:26:52;100282.47;;;4.63;100.00
62333;BME280;48624;49.812;8.562;2023-04-21T05:29:18;100288.72;;;4.80;100.00
62333;BME280;48624;49.812;8.562;2023-04-21T05:31:43;100299.78;;;4.86;100.00
62333;BME280;48624;49.812;8.562;2023-04-21T05:34:08;100297.66;;;4.95;100.00
62333;BME280;48624;49.812;8.562;2023-04-21T05:36:34;100298.84;;;5.07;100.00
62333;BME280;48624;49.812;8.562;2023-04-21T05:38:59;100283.53;;;4.97;100.00
62333;BME280;48624;49.812;8.562;2023-04-21T05:41:24;100281.69;;;4.99;100.00
62333;BME280;48624;49.812;8.562;2023-04-21T05:43:50;100280.84;;;4.80;100.00
62333;BME280;48624;49.812;8.562;2023-04-21T05:46:15;100285.03;;;5.03;100.00
62333;BME280;48624;49.812;8.562;2023-04-21T05:48:40;100284.31;;;4.80;100.00
62333;BME280;48624;49.812;8.562;2023-04-21T05:51:13;100296.47;;;4.83;100.00
62333;BME280;48624;49.812;8.562;2023-04-21T05:53:40;100286.34;;;5.12;100.00
62333;BME280;48624;49.812;8.562;2023-04-21T05:56:07;100300.81;;;5.21;100.00
62333;BME280;48624;49.812;8.562;2023-04-21T05:58:33;100290.69;;;5.13;100.00
62333;BME280;48624;49.812;8.562;2023-04-21T06:00:58;100296.75;;;5.33;100.00
62333;BME280;48624;49.812;8.562;2023-04-21T06:03:23;100293.59;;;5.44;100.00
62333;BME280;48624;49.812;8.562;2023-04-21T06:05:53;100289.91;;;5.65;100.00
62333;BME280;48624;49.812;8.562;2023-04-21T06:08:19;100290.53;;;5.71;100.00
62333;BME280;48624;49.812;8.562;2023-04-21T06:10:44;100279.94;;;5.72;100.00
62333;BME280;48624;49.812;8.562;2023-04-21T06:13:09;100287.28;;;5.83;100.00
62333;BME280;48624;49.812;8.562;2023-04-21T06:15:35;100294.63;;;5.94;100.00
62333;BME280;48624;49.812;8.562;2023-04-21T06:18:00;100299.66;;;6.16;100.00
62333;BME280;48624;49.812;8.562;2023-04-21T06:20:25;100301.69;;;6.11;100.00
62333;BME280;48624;49.812;8.562;2023-04-21T06:22:51;100297.16;;;6.31;100.00
62333;BME280;48624;49.812;8.562;2023-04-21T06:25:16;100301.56;;;6.30;100.00
62333;BME280;48624;49.812;8.562;2023-04-21T06:27:42;100299.50;;;6.53;100.00
62333;BME280;48624;49.812;8.562;2023-04-21T06:30:09;100302.81;;;6.57;100.00
62333;BME280;48624;49.812;8.562;2023-04-21T06:32:35;100306.56;;;6.69;100.00
62333;BME280;48624;49.812;8.562;2023-04-21T06:35:00;100305.34;;;6.58;100.00
62333;BME280;48624;49.812;8.562;2023-04-21T06:37:26;100303.19;;;6.83;100.00
62333;BME280;48624;49.812;8.562;2023-04-21T06:39:51;100305.75;;;7.00;100.00
62333;BME280;48624;49.812;8.562;2023-04-21T06:42:17;100307.34;;;6.87;100.00
62333;BME280;48624;49.812;8.562;2023-04-21T06:44:42;100312.19;;;6.94;100.00
62333;BME280;48624;49.812;8.562;2023-04-21T06:47:08;100308.56;;;6.97;100.00
62333;BME280;48624;49.812;8.562;2023-04-21T06:49:34;100312.63;;;7.19;100.00
62333;BME280;48624;49.812;8.562;2023-04-21T06:52:02;100313.03;;;7.27;100.00
62333;BME280;48624;49.812;8.562;2023-04-21T06:54:27;100309.91;;;7.20;100.00
62333;BME280;48624;49.812;8.562;2023-04-21T06:56:52;100322.72;;;7.43;100.00
62333;BME280;48624;49.812;8.562;2023-04-21T06:59:18;100320.47;;;7.67;100.00
62333;BME280;48624;49.812;8.562;2023-04-21T07:01:44;100312.44;;;7.85;100.00
62333;BME280;48624;49.812;8.562;2023-04-21T07:04:09;100301.00;;;7.84;100.00
62333;BME280;48624;49.812;8.562;2023-04-21T07:06:34;100303.50;;;7.71;100.00
62333;BME280;48624;49.812;8.562;2023-04-21T07:09:00;100302.63;;;7.87;100.00
62333;BME280;48624;49.812;8.562;2023-04-21T07:11:26;100297.75;;;8.10;100.00
62333;BME280;48624;49.812;8.562;2023-04-21T07:13:53;100303.34;;;8.34;100.00
62333;BME280;48624;49.812;8.562;2023-04-21T07:16:19;100310.00;;;8.56;100.00
62333;BME280;48624;49.812;8.562;2023-04-21T07:18:45;100306.13;;;8.62;100.00
62333;BME280;48624;49.812;8.562;2023-04-21T07:21:10;100306.94;;;8.62;100.00
62333;BME280;48624;49.812;8.562;2023-04-21T07:23:36;100317.69;;;9.02;100.00
62333;BME280;48624;49.812;8.562;2023-04-21T07:26:01;100308.22;;;9.13;100.00
62333;BME280;48624;49.812;8.562;2023-04-21T07:28:26;100314.97;;;9.32;100.00
62333;BME280;48624;49.812;8.562;2023-04-21T07:30:51;100310.63;;;9.43;100.00
62333;BME280;48624;49.812;8.562;2023-04-21T07:33:17;100310.94;;;9.39;100.00
62333;BME280;48624;49.812;8.562;2023-04-21T07:35:42;100306.66;;;9.51;100.00
62333;BME280;48624;49.812;8.562;2023-04-21T07:38:07;100297.41;;;9.43;100.00
62333;BME280;48624;49.812;8.562;2023-04-21T07:40:33;100304.56;;;9.28;100.00
62333;BME280;48624;49.812;8.562;2023-04-21T07:42:58;100306.66;;;9.51;100.00
62333;BME280;48624;49.812;8.562;2023-04-21T07:45:24;100307.34;;;9.67;100.00
62333;BME280;48624;49.812;8.562;2023-04-21T07:47:50;100291.47;;;9.67;100.00
62333;BME280;48624;49.812;8.562;2023-04-21T07:50:15;100292.78;;;9.47;100.00
62333;BME280;48624;49.812;8.562;2023-04-21T07:52:41;100290.03;;;10.02;100.00
62333;BME280;48624;49.812;8.562;2023-04-21T07:55:06;100289.38;;;9.98;100.00
62333;BME280;48624;49.812;8.562;2023-04-21T07:57:32;100285.47;;;10.04;100.00
62333;BME280;48624;49.812;8.562;2023-04-21T07:59:59;100292.88;;;10.38;100.00
62333;BME280;48624;49.812;8.562;2023-04-21T08:02:24;100290.56;;;10.59;98.66
62333;BME280;48624;49.812;8.562;2023-04-21T08:04:49;100294.97;;;10.85;98.42
62333;BME280;48624;49.812;8.562;2023-04-21T08:07:15;100300.19;;;11.10;98.82
62333;BME280;48624;49.812;8.562;2023-04-21T08:09:40;100303.19;;;11.06;98.00
62333;BME280;48624;49.812;8.562;2023-04-21T08:12:05;100300.16;;;11.23;96.81
62333;BME280;48624;49.812;8.562;2023-04-21T08:14:31;100304.41;;;10.89;92.55
62333;BME280;48624;49.812;8.562;2023-04-21T08:16:58;100296.59;;;11.36;95.81
62333;BME280;48624;49.812;8.562;2023-04-21T08:19:24;100293.84;;;11.13;93.97
62333;BME280;48624;49.812;8.562;2023-04-21T08:21:49;100304.44;;;11.13;93.49
62333;BME280;48624;49.812;8.562;2023-04-21T08:24:14;100307.75;;;11.52;94.81
62333;BME280;48624;49.812;8.562;2023-04-21T08:26:40;100309.44;;;11.54;92.46
62333;BME280;48624;49.812;8.562;2023-04-21T08:29:05;100305.63;;;11.93;92.60
62333;BME280;48624;49.812;8.562;2023-04-21T08:31:31;100303.13;;;11.19;90.74
62333;BME280;48624;49.812;8.562;2023-04-21T08:33:57;100299.56;;;11.31;91.77
62333;BME280;48624;49.812;8.562;2023-04-21T08:36:22;100298.41;;;11.60;91.04
62333;BME280;48624;49.812;8.562;2023-04-21T08:38:47;100289.50;;;11.72;91.28
62333;BME280;48624;49.812;8.562;2023-04-21T08:41:12;100291.22;;;12.43;89.29
62333;BME280;48624;49.812;8.562;2023-04-21T08:43:38;100291.13;;;12.45;86.97
62333;BME280;48624;49.812;8.562;2023-04-21T08:46:07;100288.41;;;12.11;86.14
62333;BME280;48624;49.812;8.562;2023-04-21T08:48:35;100286.53;;;12.47;88.96
62333;BME280;48624;49.812;8.562;2023-04-21T08:51:01;100276.03;;;12.57;87.19
62333;BME280;48624;49.812;8.562;2023-04-21T08:53:27;100275.66;;;12.39;88.05
62333;BME280;48624;49.812;8.562;2023-04-21T08:55:54;100265.94;;;12.83;86.56
62333;BME280;48624;49.812;8.562;2023-04-21T08:58:20;100267.63;;;12.84;84.99
62333;BME280;48624;49.812;8.562;2023-04-21T09:00:47;100260.78;;;12.70;86.41
62333;BME280;48624;49.812;8.562;2023-04-21T09:03:12;100261.66;;;12.37;84.97
62333;BME280;48624;49.812;8.562;2023-04-21T09:05:38;100261.75;;;12.35;86.42
62333;BME280;48624;49.812;8.562;2023-04-21T09:08:14;100257.03;;;12.39;84.58
62333;BME280;48624;49.812;8.562;2023-04-21T09:10:50;100261.63;;;12.48;83.63
62333;BME280;48624;49.812;8.562;2023-04-21T09:13:19;100259.09;;;12.24;85.12
62333;BME280;48624;49.812;8.562;2023-04-21T09:15:49;100260.44;;;12.29;86.34
62333;BME280;48624;49.812;8.562;2023-04-21T09:18:19;100259.97;;;11.41;87.72
62333;BME280;48624;49.812;8.562;2023-04-21T09:20:47;100260.78;;;12.36;86.90
62333;BME280;48624;49.812;8.562;2023-04-21T09:23:12;100262.94;;;12.65;85.28
62333;BME280;48624;49.812;8.562;2023-04-21T09:25:39;100264.50;;;12.79;84.92
62333;BME280;48624;49.812;8.562;2023-04-21T09:28:12;100266.88;;;13.05;84.67
62333;BME280;48624;49.812;8.562;2023-04-21T09:30:39;100262.78;;;13.01;81.46
62333;BME280;48624;49.812;8.562;2023-04-21T09:33:05;100265.25;;;13.25;83.03
62333;BME280;48624;49.812;8.562;2023-04-21T09:35:32;100257.72;;;13.63;82.00
62333;BME280;48624;49.812;8.562;2023-04-21T09:37:59;100259.59;;;13.40;79.16
62333;BME280;48624;49.812;8.562;2023-04-21T09:40:24;100253.31;;;13.41;82.04
62333;BME280;48624;49.812;8.562;2023-04-21T09:42:50;100242.44;;;13.44;80.81
62333;BME280;48624;49.812;8.562;2023-04-21T09:45:16;100254.28;;;13.72;78.81
62333;BME280;48624;49.812;8.562;2023-04-21T09:47:42;100254.16;;;13.41;81.63
62333;BME280;48624;49.812;8.562;2023-04-21T09:50:09;100245.97;;;13.87;79.16
62333;BME280;48624;49.812;8.562;2023-04-21T09:52:38;100249.94;;;13.39;77.24
62333;BME280;48624;49.812;8.562;2023-04-21T09:55:10;100244.59;;;13.93;80.68
62333;BME280;48624;49.812;8.562;2023-04-21T09:57:38;100242.66;;;13.73;77.29
62333;BME280;48624;49.812;8.562;2023-04-21T10:00:07;100237.41;;;14.46;75.61
62333;BME280;48624;49.812;8.562;2023-04-21T10:02:35;100232.44;;;14.31;75.59
62333;BME280;48624;49.812;8.562;2023-04-21T10:05:03;100227.75;;;14.54;72.19
62333;BME280;48624;49.812;8.562;2023-04-21T10:07:30;100225.25;;;14.22;78.20
62333;BME280;48624;49.812;8.562;2023-04-21T10:09:57;100218.06;;;13.60;81.78
62333;BME280;48624;49.812;8.562;2023-04-21T10:12:24;100218.91;;;14.13;77.04
62333;BME280;48624;49.812;8.562;2023-04-21T10:14:54;100214.50;;;14.33;77.90
62333;BME280;48624;49.812;8.562;2023-04-21T10:17:25;100218.63;;;13.85;79.79
62333;BME280;48624;49.812;8.562;2023-04-21T10:19:55;100218.56;;;13.96;80.80
62333;BME280;48624;49.812;8.562;2023-04-21T10:22:30;100215.19;;;13.73;79.02
62333;BME280;48624;49.812;8.562;2023-04-21T10:24:57;100222.34;;;14.04;77.74
62333;BME280;48624;49.812;8.562;2023-04-21T10:29:58;100204.78;;;13.91;78.13
62333;BME280;48624;49.812;8.562;2023-04-21T10:32:40;100204.88;;;14.52;74.24
62333;BME280;48624;49.812;8.562;2023-04-21T10:35:10;100213.13;;;14.80;71.54
62333;BME280;48624;49.812;8.562;2023-04-21T10:37:35;100209.63;;;14.89;73.32
62333;BME280;48624;49.812;8.562;2023-04-21T10:40:01;100202.19;;;15.32;73.51
62333;BME280;48624;49.812;8.562;2023-04-21T10:42:33;100195.84;;;15.53;70.85
62333;BME280;48624;49.812;8.562;2023-04-21T10:45:06;100203.28;;;16.45;66.35
62333;BME280;48624;49.812;8.562;2023-04-21T10:47:46;100198.03;;;16.53;65.44
62333;BME280;48624;49.812;8.562;2023-04-21T10:50:24;100194.56;;;16.43;65.64
62333;BME280;48624;49.812;8.562;2023-04-21T10:52:57;100185.84;;;16.69;63.48
62333;BME280;48624;49.812;8.562;2023-04-21T10:55:28;100194.50;;;16.99;62.89
62333;BME280;48624;49.812;8.562;2023-04-21T10:57:54;100189.34;;;17.15;62.20
62333;BME280;48624;49.812;8.562;2023-04-21T11:00:22;100196.81;;;16.94;61.75
62333;BME280;48624;49.812;8.562;2023-04-21T11:02:55;100188.59;;;17.05;62.64
62333;BME280;48624;49.812;8.562;2023-04-21T11:05:33;100186.94;;;16.94;62.39
62333;BME280;48624;49.812;8.562;2023-04-21T11:08:05;100180.78;;;17.83;60.64
62333;BME280;48624;49.812;8.562;2023-04-21T11:10:51;100182.84;;;17.89;60.11
62333;BME280;48624;49.812;8.562;2023-04-21T11:13:19;100171.53;;;17.77;59.57
62333;BME280;48624;49.812;8.562;2023-04-21T11:15:59;100176.03;;;17.24;61.00
62333;BME280;48624;49.812;8.562;2023-04-21T11:18:52;100168.47;;;17.45;60.59
62333;BME280;48624;49.812;8.562;2023-04-21T11:21:18;100169.97;;;17.66;59.87
62333;BME280;48624;49.812;8.562;2023-04-21T11:23:56;100167.28;;;17.66;59.36
62333;BME280;48624;49.812;8.562;2023-04-21T11:26:41;100165.19;;;17.52;58.69
62333;BME280;48624;49.812;8.562;2023-04-21T11:29:08;100154.72;;;17.93;59.72
62333;BME280;48624;49.812;8.562;2023-04-21T11:31:35;100156.22;;;17.61;59.92
62333;BME280;48624;49.812;8.562;2023-04-21T11:34:01;100151.59;;;17.71;58.95
62333;BME280;48624;49.812;8.562;2023-04-21T11:36:34;100142.53;;;18.42;57.03
62333;BME280;48624;49.812;8.562;2023-04-21T11:39:13;100139.56;;;18.78;57.14
62333;BME280;48624;49.812;8.562;2023-04-21T11:41:44;100140.63;;;19.19;54.57
62333;BME280;48624;49.812;8.562;2023-04-21T11:44:10;100143.66;;;19.07;54.09
62333;BME280;48624;49.812;8.562;2023-04-21T11:46:36;100135.22;;;18.85;56.15
62333;BME280;48624;49.812;8.562;2023-04-21T11:49:05;100134.66;;;18.49;56.69
62333;BME280;48624;49.812;8.562;2023-04-21T11:51:35;100131.00;;;18.75;55.12
62333;BME280;48624;49.812;8.562;2023-04-21T11:54:01;100133.56;;;19.01;55.45
62333;BME280;48624;49.812;8.562;2023-04-21T11:56:28;100126.03;;;19.13;55.26
62333;BME280;48624;49.812;8.562;2023-04-21T11:58:54;100128.56;;;19.15;53.79
62333;BME280;48624;49.812;8.562;2023-04-21T12:01:20;100127.84;;;18.96;55.92
62333;BME280;48624;49.812;8.562;2023-04-21T12:03:51;100125.13;;;18.03;55.41
62333;BME280;48624;49.812;8.562;2023-04-21T12:06:23;100120.81;;;19.20;52.71
62333;BME280;48624;49.812;8.562;2023-04-21T12:08:54;100117.44;;;19.43;53.42
62333;BME280;48624;49.812;8.562;2023-04-21T12:11:21;100119.66;;;19.22;54.49
62333;BME280;48624;49.812;8.562;2023-04-21T12:13:47;100118.97;;;19.04;53.13
62333;BME280;48624;49.812;8.562;2023-04-21T12:16:12;100117.63;;;18.99;52.75
62333;BME280;48624;49.812;8.562;2023-04-21T12:18:38;100117.81;;;19.88;53.10
62333;BME280;48624;49.812;8.562;2023-04-21T12:21:03;100106.31;;;20.10;51.91
62333;BME280;48624;49.812;8.562;2023-04-21T12:23:29;100114.88;;;20.14;52.94
62333;BME280;48624;49.812;8.562;2023-04-21T12:25:54;100109.06;;;20.34;52.03
62333;BME280;48624;49.812;8.562;2023-04-21T12:28:19;100111.38;;;20.14;51.19
62333;BME280;48624;49.812;8.562;2023-04-21T12:30:45;100112.13;;;20.54;51.41
62333;BME280;48624;49.812;8.562;2023-04-21T12:33:11;100109.78;;;20.28;50.55
62333;BME280;48624;49.812;8.562;2023-04-21T12:35:37;100114.88;;;20.46;50.10
62333;BME280;48624;49.812;8.562;2023-04-21T12:38:03;100105.69;;;20.63;50.11
62333;BME280;48624;49.812;8.562;2023-04-21T12:40:28;100105.50;;;20.42;49.91
62333;BME280;48624;49.812;8.562;2023-04-21T12:42:54;100106.19;;;20.35;51.52
62333;BME280;48624;49.812;8.562;2023-04-21T12:45:19;100095.16;;;20.54;50.78
62333;BME280;48624;49.812;8.562;2023-04-21T12:47:45;100099.44;;;20.63;50.63
62333;BME280;48624;49.812;8.562;2023-04-21T12:50:10;100099.13;;;20.89;49.21